createdAt,value
2018-04-13T00:00:22.956Z,73.84
2018-04-13T00:02:52.323Z,73.71
2018-04-13T00:05:21.451Z,73.69
2018-04-13T00:07:50.468Z,73.75
2018-04-13T00:10:19.506Z,73.87
2018-04-13T00:12:48.566Z,73.89
2018-04-13T00:15:17.603Z,74.11
2018-04-13T00:17:48.063Z,73.68
2018-04-13T00:20:17.963Z,73.95
2018-04-13T00:22:47.007Z,73.95
2018-04-13T00:25:16.148Z,74.35
2018-04-13T00:27:45.227Z,74.63
2018-04-13T00:30:14.422Z,74.29
2018-04-13T00:32:43.579Z,74.61
2018-04-13T00:35:21.000Z,74.67
2018-04-13T00:37:50.205Z,74.77
2018-04-13T00:40:19.232Z,74.77
2018-04-13T00:42:48.228Z,75.06
2018-04-13T00:45:17.349Z,75.09
2018-04-13T00:47:46.401Z,75.03
2018-04-13T00:50:15.511Z,75.20
2018-04-13T00:52:53.678Z,75.64
2018-04-13T00:55:22.745Z,75.91
2018-04-13T00:57:51.792Z,75.71
2018-04-13T01:00:23.248Z,75.64
2018-04-13T01:02:52.409Z,76.31
2018-04-13T01:05:21.512Z,76.43
2018-04-13T01:07:54.665Z,76.45
2018-04-13T01:10:23.789Z,76.22
2018-04-13T01:12:53.065Z,76.31
2018-04-13T01:15:22.436Z,76.29
2018-04-13T01:17:51.471Z,76.13
2018-04-13T01:20:20.790Z,75.84
2018-04-13T01:22:49.960Z,76.04
2018-04-13T01:25:19.389Z,76.19
2018-04-13T01:27:48.473Z,76.35
2018-04-13T01:30:17.716Z,76.11
2018-04-13T01:32:46.822Z,76.16
2018-04-13T01:35:16.610Z,75.67
2018-04-13T01:37:46.155Z,76.46
2018-04-13T01:40:15.180Z,76.72
2018-04-13T01:42:44.333Z,76.91
2018-04-13T01:45:15.397Z,76.61
2018-04-13T01:47:44.717Z,76.71
2018-04-13T01:53:12.985Z,77.02
2018-04-13T01:55:42.008Z,76.91
2018-04-13T01:58:11.521Z,76.90
2018-04-13T02:00:40.547Z,77.24
2018-04-13T02:03:09.610Z,77.50
2018-04-13T02:05:39.118Z,77.24
2018-04-13T02:08:09.862Z,77.35
2018-04-13T02:10:40.766Z,77.51
2018-04-13T02:13:11.104Z,77.42
2018-04-13T02:15:40.520Z,77.64
2018-04-13T02:18:09.528Z,77.31
2018-04-13T02:20:38.885Z,77.25
2018-04-13T02:23:09.063Z,77.61
2018-04-13T02:25:38.212Z,77.60
2018-04-13T02:28:08.248Z,77.52
2018-04-13T02:30:39.275Z,78.16
2018-04-13T02:33:08.221Z,77.58
2018-04-13T02:35:38.702Z,77.22
2018-04-13T02:38:09.806Z,77.41
2018-04-13T02:40:38.732Z,76.81
2018-04-13T02:43:07.691Z,77.31
2018-04-13T02:45:36.693Z,77.41
2018-04-13T02:48:05.630Z,76.82
2018-04-13T02:50:34.572Z,76.87
2018-04-13T02:53:05.792Z,76.67
2018-04-13T02:55:34.696Z,76.91
2018-04-13T02:58:03.623Z,77.08
2018-04-13T03:00:32.760Z,77.24
2018-04-13T03:03:01.983Z,77.86
2018-04-13T03:05:30.919Z,77.93
2018-04-13T03:08:01.554Z,77.55
2018-04-13T03:10:31.259Z,77.37
2018-04-13T03:13:00.195Z,77.25
2018-04-13T03:15:29.251Z,77.75
2018-04-13T03:17:58.484Z,78.36
2018-04-13T03:20:31.078Z,78.04
2018-04-13T03:23:00.281Z,77.70
2018-04-13T03:25:29.318Z,77.72
2018-04-13T03:27:58.256Z,78.15
2018-04-13T03:30:27.187Z,78.08
2018-04-13T03:32:56.141Z,78.32
2018-04-13T03:35:25.559Z,78.01
2018-04-13T03:37:54.463Z,77.83
2018-04-13T03:40:23.425Z,78.24
2018-04-13T03:42:53.545Z,78.37
2018-04-13T03:45:22.798Z,78.40
2018-04-13T03:47:51.726Z,77.52
2018-04-13T03:50:22.281Z,76.69
2018-04-13T03:52:51.466Z,76.36
2018-04-13T03:55:20.390Z,76.63
2018-04-13T03:57:49.302Z,76.61
2018-04-13T04:00:18.235Z,76.57
2018-04-13T04:02:47.264Z,76.96
2018-04-13T04:05:16.343Z,76.99
2018-04-13T04:07:45.790Z,77.31
2018-04-13T04:10:14.637Z,77.30
2018-04-13T04:12:45.064Z,77.27
2018-04-13T04:15:14.146Z,77.88
2018-04-13T04:17:43.954Z,78.14
2018-04-13T04:24:31.059Z,78.53
2018-04-13T04:27:00.027Z,78.66
2018-04-13T04:29:29.143Z,78.19
2018-04-13T04:31:58.210Z,77.10
2018-04-13T04:34:27.477Z,76.83
2018-04-13T04:36:58.339Z,76.75
2018-04-13T04:39:27.268Z,75.58
2018-04-13T04:41:56.192Z,75.89
2018-04-13T04:44:25.184Z,76.27
2018-04-13T04:46:54.730Z,76.53
2018-04-13T04:49:23.731Z,76.61
2018-04-13T04:51:53.175Z,76.84
2018-04-13T04:54:22.290Z,77.44
2018-04-13T04:56:51.283Z,76.88
2018-04-13T04:59:20.405Z,76.80
2018-04-13T05:01:49.474Z,76.78
2018-04-13T05:04:18.389Z,77.08
2018-04-13T05:06:47.509Z,76.50
2018-04-13T05:09:16.458Z,75.80
2018-04-13T05:11:46.490Z,75.64
2018-04-13T05:14:15.462Z,75.41
2018-04-13T05:16:45.097Z,75.77
2018-04-13T05:19:14.045Z,76.05
2018-04-13T05:21:44.438Z,76.28
2018-04-13T05:24:13.487Z,75.78
2018-04-13T05:26:59.946Z,75.33
2018-04-13T05:29:29.164Z,75.49
2018-04-13T05:31:58.113Z,75.63
2018-04-13T05:34:27.007Z,76.16
2018-04-13T05:36:55.975Z,75.64
2018-04-13T05:39:25.411Z,76.12
2018-04-13T05:41:54.651Z,75.83
2018-04-13T05:44:23.641Z,75.85
2018-04-13T05:46:52.575Z,75.73
2018-04-13T05:49:21.578Z,75.47
2018-04-13T05:51:51.312Z,75.48
2018-04-13T05:54:20.222Z,74.93
2018-04-13T05:56:49.269Z,74.59
2018-04-13T05:59:18.572Z,73.96
2018-04-13T06:01:47.564Z,73.54
2018-04-13T06:04:17.501Z,73.17
2018-04-13T06:06:46.600Z,72.80
2018-04-13T06:09:15.749Z,72.27
2018-04-13T06:11:44.766Z,71.82
2018-04-13T06:14:13.809Z,70.88
2018-04-13T06:16:43.872Z,70.97
2018-04-13T06:19:15.116Z,71.73
2018-04-13T06:21:46.143Z,72.16
2018-04-13T06:24:15.245Z,71.82
2018-04-13T06:26:44.209Z,71.97
2018-04-13T06:29:13.513Z,71.78
2018-04-13T06:31:42.596Z,71.26
2018-04-13T06:34:11.552Z,70.97
2018-04-13T06:36:40.686Z,69.70
2018-04-13T06:39:09.699Z,69.58
2018-04-13T06:41:38.627Z,69.21
2018-04-13T06:44:07.713Z,68.76
2018-04-13T06:46:36.884Z,68.72
2018-04-13T06:49:05.755Z,68.75
2018-04-13T06:51:34.658Z,69.36
2018-04-13T06:54:03.558Z,68.28
2018-04-13T06:56:32.823Z,67.01
2018-04-13T06:59:02.281Z,66.38
2018-04-13T07:01:31.311Z,65.49
2018-04-13T07:04:00.382Z,64.34
2018-04-13T07:06:29.932Z,63.94
2018-04-13T07:08:59.038Z,63.22
2018-04-13T07:11:28.386Z,62.66
2018-04-13T07:13:57.292Z,62.53
2018-04-13T07:16:26.138Z,61.82
2018-04-13T07:18:55.881Z,61.92
2018-04-13T07:21:25.064Z,61.56
2018-04-13T07:23:53.995Z,61.86
2018-04-13T07:26:23.049Z,61.05
2018-04-13T07:28:52.276Z,61.20
2018-04-13T07:31:21.421Z,61.77
2018-04-13T07:33:50.341Z,61.95
2018-04-13T07:36:19.246Z,61.22
2018-04-13T07:38:48.453Z,61.13
2018-04-13T07:41:17.421Z,61.89
2018-04-13T07:43:46.301Z,61.42
2018-04-13T07:46:15.400Z,61.32
2018-04-13T07:48:44.375Z,61.07
2018-04-13T07:51:13.257Z,60.22
2018-04-13T07:53:42.623Z,60.93
2018-04-13T07:56:14.933Z,61.55
2018-04-13T07:58:43.983Z,61.11
2018-04-13T08:01:13.026Z,60.72
2018-04-13T08:03:41.972Z,60.49
2018-04-13T08:06:11.416Z,58.88
2018-04-13T08:08:40.493Z,59.47
2018-04-13T08:11:09.412Z,59.37
2018-04-13T08:13:38.379Z,59.63
2018-04-13T08:16:07.348Z,59.95
2018-04-13T08:18:36.281Z,60.09
2018-04-13T08:21:07.863Z,59.85
2018-04-13T08:23:36.744Z,59.31
2018-04-13T08:26:05.642Z,58.72
2018-04-13T08:28:38.356Z,58.37
2018-04-13T08:31:07.298Z,58.23
2018-04-13T08:33:36.197Z,57.74
2018-04-13T08:36:05.247Z,57.23
2018-04-13T08:38:34.433Z,56.85
2018-04-13T08:41:03.419Z,57.05
2018-04-13T08:43:32.472Z,56.76
2018-04-13T08:46:02.640Z,56.52
2018-04-13T08:48:31.569Z,56.01
2018-04-13T08:51:00.506Z,55.66
2018-04-13T08:53:29.477Z,55.76
2018-04-13T08:55:58.353Z,55.84
2018-04-13T08:58:27.258Z,55.50
2018-04-13T09:00:56.180Z,55.68
2018-04-13T09:03:25.387Z,55.97
2018-04-13T09:05:54.491Z,56.38
2018-04-13T09:08:23.456Z,56.72
2018-04-13T09:10:52.560Z,57.17
2018-04-13T09:13:21.868Z,56.71
2018-04-13T09:15:52.105Z,56.71
2018-04-13T09:18:21.053Z,57.33
2018-04-13T09:20:50.918Z,55.97
2018-04-13T09:23:19.838Z,56.19
2018-04-13T09:25:48.746Z,56.52
2018-04-13T09:28:19.289Z,53.95
2018-04-13T09:30:49.600Z,52.23
2018-04-13T09:33:18.492Z,51.75
2018-04-13T09:35:47.416Z,51.56
2018-04-13T09:38:16.372Z,49.59
2018-04-13T09:40:45.422Z,49.03
2018-04-13T09:43:14.368Z,47.67
2018-04-13T09:45:44.347Z,47.94
2018-04-13T09:48:13.247Z,47.50
2018-04-13T09:50:42.445Z,47.82
2018-04-13T09:53:11.406Z,47.86
2018-04-13T09:55:40.417Z,48.28
2018-04-13T09:58:09.462Z,49.13
2018-04-13T10:00:39.174Z,49.63
2018-04-13T10:03:13.384Z,49.28
2018-04-13T10:05:42.436Z,49.54
2018-04-13T10:08:12.085Z,49.56
2018-04-13T10:10:41.130Z,49.81
2018-04-13T10:13:10.107Z,49.95
2018-04-13T10:15:40.651Z,51.01
2018-04-13T10:18:09.765Z,50.74
2018-04-13T10:20:39.165Z,52.00
2018-04-13T10:23:11.871Z,54.18
2018-04-13T10:25:41.007Z,57.51
2018-04-13T10:28:10.053Z,61.87
2018-04-13T10:30:41.694Z,67.56
2018-04-13T10:33:11.318Z,67.95
2018-04-13T10:35:40.367Z,69.97
2018-04-13T10:38:11.023Z,71.10
2018-04-13T10:40:40.064Z,72.11
2018-04-13T10:43:09.367Z,74.91
2018-04-13T10:45:39.944Z,76.51
2018-04-13T10:48:08.909Z,77.79
2018-04-13T10:50:40.565Z,75.95
2018-04-13T10:53:10.327Z,77.22
2018-04-13T10:55:39.716Z,78.55
2018-04-13T10:58:08.872Z,77.65
2018-04-13T11:00:38.067Z,78.68
2018-04-13T11:03:07.151Z,80.04
2018-04-13T11:05:36.040Z,80.16
2018-04-13T11:08:04.961Z,81.68
2018-04-13T11:10:34.389Z,81.41
2018-04-13T11:13:03.347Z,81.91
2018-04-13T11:15:33.403Z,80.43
2018-04-13T11:18:02.948Z,81.25
2018-04-13T11:20:31.874Z,79.58
2018-04-13T11:23:01.106Z,81.99
2018-04-13T11:25:30.541Z,82.06
2018-04-13T11:27:59.899Z,80.86
2018-04-13T11:30:29.476Z,79.46
2018-04-13T11:32:58.831Z,80.79
2018-04-13T11:35:27.837Z,81.39
2018-04-13T11:37:56.884Z,80.37
2018-04-13T11:40:26.874Z,81.43
2018-04-13T11:42:57.135Z,80.89
2018-04-13T11:45:26.233Z,81.43
2018-04-13T11:47:55.263Z,80.72
2018-04-13T11:50:24.281Z,82.12
2018-04-13T11:52:53.638Z,81.41
2018-04-13T11:55:23.461Z,80.07
2018-04-13T11:57:52.384Z,83.53
2018-04-13T12:00:22.413Z,80.81
2018-04-13T12:02:53.059Z,82.35
2018-04-13T12:05:21.982Z,82.75
2018-04-13T12:07:50.988Z,83.34
2018-04-13T12:10:22.575Z,84.61
2018-04-13T12:12:52.264Z,84.23
2018-04-13T12:15:21.302Z,86.92
2018-04-13T12:17:50.572Z,86.46
2018-04-13T12:20:19.745Z,86.88
2018-04-13T12:22:48.827Z,87.87
2018-04-13T12:25:18.770Z,88.01
2018-04-13T12:27:48.084Z,87.84
2018-04-13T12:30:17.243Z,88.22
2018-04-13T12:32:47.307Z,88.10
2018-04-13T12:35:19.972Z,88.75
2018-04-13T12:37:50.068Z,88.58
2018-04-13T12:40:20.081Z,88.77
2018-04-13T12:42:49.678Z,88.77
2018-04-13T12:45:20.017Z,88.28
2018-04-13T12:47:49.240Z,88.80
2018-04-13T12:50:19.992Z,88.85
2018-04-13T12:52:49.050Z,88.88
2018-04-13T12:55:22.742Z,89.12
2018-04-13T12:57:51.882Z,89.70
2018-04-13T13:00:21.072Z,89.73
2018-04-13T13:02:51.975Z,89.84
2018-04-13T13:05:24.134Z,89.94
2018-04-13T13:07:53.309Z,90.02
2018-04-13T13:10:22.712Z,89.82
2018-04-13T13:12:52.716Z,89.81
2018-04-13T13:15:22.132Z,89.60
2018-04-13T13:17:51.334Z,89.55
2018-04-13T13:20:21.855Z,89.57
2018-04-13T13:22:50.979Z,89.77
2018-04-13T13:25:20.022Z,88.92
2018-04-13T13:27:49.216Z,89.36
2018-04-13T13:30:18.155Z,89.42
2018-04-13T13:32:47.364Z,89.13
2018-04-13T13:35:17.021Z,89.06
2018-04-13T13:37:46.003Z,89.63
2018-04-13T13:40:15.445Z,89.74
2018-04-13T13:42:44.713Z,89.88
2018-04-13T13:45:13.699Z,89.22
2018-04-13T13:47:42.693Z,89.57
2018-04-13T13:50:13.012Z,90.05
2018-04-13T13:52:42.966Z,89.85
2018-04-13T13:55:12.225Z,90.24
2018-04-13T13:57:41.595Z,90.30
2018-04-13T14:00:10.561Z,90.13
2018-04-13T14:02:39.669Z,90.02
2018-04-13T14:05:14.326Z,90.21
2018-04-13T14:07:43.366Z,88.53
2018-04-13T14:10:12.373Z,82.28
2018-04-13T14:12:41.676Z,80.93
2018-04-13T14:15:10.682Z,81.67
2018-04-13T14:17:39.972Z,80.68
2018-04-13T14:20:09.600Z,78.63
2018-04-13T14:22:39.686Z,79.74
2018-04-13T14:25:08.631Z,79.44
2018-04-13T14:27:38.137Z,77.82
2018-04-13T14:30:07.187Z,77.19
2018-04-13T14:32:36.361Z,75.54
2018-04-13T14:35:07.299Z,75.32
2018-04-13T14:37:45.212Z,75.22
2018-04-13T14:40:14.625Z,74.22
2018-04-13T14:42:46.583Z,73.67
2018-04-13T14:45:15.595Z,74.10
2018-04-13T14:47:44.753Z,74.13
2018-04-13T14:50:16.888Z,76.92
2018-04-13T14:52:47.631Z,76.42
2018-04-13T14:55:16.649Z,74.99
2018-04-13T14:57:45.946Z,75.90
2018-04-13T15:00:15.345Z,74.18
2018-04-13T15:02:45.977Z,74.99
2018-04-13T15:05:16.191Z,73.74
2018-04-13T15:07:45.174Z,74.04
2018-04-13T15:10:16.340Z,76.12
2018-04-13T15:12:45.669Z,76.16
2018-04-13T15:15:14.835Z,75.84
2018-04-13T15:17:46.229Z,73.72
2018-04-13T15:20:15.863Z,72.49
2018-04-13T15:22:45.099Z,72.23
2018-04-13T15:32:21.709Z,71.96
2018-04-13T15:34:50.922Z,70.81
2018-04-13T15:37:19.908Z,71.20
2018-04-13T15:39:49.231Z,72.22
2018-04-13T15:42:19.534Z,72.12
2018-04-13T15:44:48.522Z,69.82
2018-04-13T15:47:17.643Z,70.28
2018-04-13T15:49:46.706Z,70.67
2018-04-13T15:52:16.303Z,68.47
2018-04-13T15:54:45.389Z,69.97
